createdAt,value
2018-09-01T00:01:04.628Z,19.59
2018-09-01T00:03:33.602Z,19.50
2018-09-01T00:06:02.412Z,19.46
2018-09-01T00:08:31.662Z,19.43
2018-09-01T00:11:00.459Z,19.33
2018-09-01T00:13:29.390Z,19.33
2018-09-01T00:15:58.786Z,19.22
2018-09-01T00:18:27.644Z,19.12
2018-09-01T00:20:56.758Z,19.07
2018-09-01T00:23:25.981Z,19.00
2018-09-01T00:25:54.937Z,18.95
2018-09-01T00:28:23.762Z,18.89
2018-09-01T00:30:53.143Z,18.91
2018-09-01T00:33:22.141Z,18.86
2018-09-01T00:35:51.131Z,18.81
2018-09-01T00:38:25.300Z,18.89
2018-09-01T00:40:54.230Z,18.93
2018-09-01T00:43:23.240Z,18.86
2018-09-01T00:45:52.335Z,18.91
2018-09-01T00:48:21.118Z,18.90
2018-09-01T00:50:49.978Z,18.92
2018-09-01T00:53:19.215Z,18.87
2018-09-01T00:55:48.404Z,18.89
2018-09-01T00:58:17.365Z,18.95
2018-09-01T01:00:46.320Z,18.81
2018-09-01T01:03:15.162Z,18.75
2018-09-01T01:05:43.934Z,18.76
2018-09-01T01:08:13.165Z,18.71
2018-09-01T01:10:42.035Z,18.67
2018-09-01T01:13:10.929Z,18.66
2018-09-01T01:15:39.876Z,18.62
2018-09-01T01:18:08.916Z,18.70
2018-09-01T01:20:37.712Z,18.59
2018-09-01T01:23:06.510Z,18.52
2018-09-01T01:25:35.277Z,18.47
2018-09-01T01:28:03.959Z,18.47
2018-09-01T01:30:33.403Z,18.59
2018-09-01T01:33:02.278Z,18.61
2018-09-01T01:35:31.376Z,18.62
2018-09-01T01:38:00.163Z,18.56
2018-09-01T01:40:29.149Z,18.52
2018-09-01T01:42:58.230Z,18.48
2018-09-01T01:45:29.816Z,18.45
2018-09-01T01:47:59.206Z,18.29
2018-09-01T01:50:28.194Z,18.28
2018-09-01T01:52:57.124Z,18.26
2018-09-01T01:55:26.203Z,18.34
2018-09-01T01:57:55.091Z,18.32
2018-09-01T02:00:24.002Z,18.23
2018-09-01T02:02:52.934Z,18.19
2018-09-01T02:05:26.327Z,18.15
2018-09-01T02:07:55.416Z,18.16
2018-09-01T02:10:24.144Z,18.15
2018-09-01T02:12:53.347Z,18.14
2018-09-01T02:15:22.226Z,18.13
2018-09-01T02:17:51.223Z,18.08
2018-09-01T02:20:20.499Z,18.16
2018-09-01T02:22:49.606Z,18.13
2018-09-01T02:25:19.223Z,18.11
2018-09-01T02:27:48.286Z,17.99
2018-09-01T02:30:17.208Z,17.98
2018-09-01T02:32:46.160Z,17.92
2018-09-01T02:35:15.441Z,17.88
2018-09-01T02:37:44.390Z,17.91
2018-09-01T02:40:13.484Z,17.96
2018-09-01T02:42:42.622Z,17.96
2018-09-01T02:45:11.659Z,17.90
2018-09-01T02:47:40.388Z,17.82
2018-09-01T02:50:09.512Z,17.81
2018-09-01T02:52:38.452Z,17.78
2018-09-01T02:55:07.572Z,17.78
2018-09-01T02:57:36.462Z,17.73
2018-09-01T03:00:09.662Z,17.67
2018-09-01T03:02:43.816Z,17.70
2018-09-01T03:05:14.163Z,17.68
2018-09-01T03:07:43.080Z,17.61
2018-09-01T03:10:12.482Z,17.58
2018-09-01T03:12:41.515Z,17.55
2018-09-01T03:15:10.232Z,17.54
2018-09-01T03:17:39.419Z,17.56
2018-09-01T03:20:08.543Z,17.56
2018-09-01T03:22:37.336Z,17.58
2018-09-01T03:25:06.855Z,17.62
2018-09-01T03:27:35.727Z,17.66
2018-09-01T03:30:04.926Z,17.65
2018-09-01T03:32:34.037Z,17.64
2018-09-01T03:35:03.037Z,17.61
2018-09-01T03:37:31.891Z,17.55
2018-09-01T03:40:00.823Z,17.50
2018-09-01T03:42:29.787Z,17.47
2018-09-01T03:44:58.794Z,17.47
2018-09-01T03:47:28.003Z,17.42
2018-09-01T03:49:57.175Z,17.36
2018-09-01T03:52:26.084Z,17.27
2018-09-01T03:54:55.715Z,17.28
2018-09-01T03:57:24.583Z,17.38
2018-09-01T03:59:53.576Z,17.45
2018-09-01T04:02:22.974Z,17.47
2018-09-01T04:04:52.368Z,17.52
2018-09-01T04:07:21.263Z,17.62
2018-09-01T04:09:50.153Z,17.88
2018-09-01T04:12:19.113Z,18.13
2018-09-01T04:14:48.060Z,18.42
2018-09-01T04:17:17.456Z,18.73
2018-09-01T04:19:46.540Z,19.11
2018-09-01T04:22:15.447Z,19.45
2018-09-01T04:24:44.932Z,19.49
2018-09-01T04:27:13.709Z,19.54
2018-09-01T04:29:42.607Z,19.83
2018-09-01T04:32:11.897Z,20.28
2018-09-01T04:34:41.163Z,20.86
2018-09-01T04:37:11.880Z,21.18
2018-09-01T04:39:41.026Z,21.71
2018-09-01T04:42:10.126Z,22.30
2018-09-01T04:44:39.148Z,22.87
2018-09-01T04:47:08.193Z,23.48
2018-09-01T04:49:37.010Z,24.00
2018-09-01T04:52:05.998Z,24.48
2018-09-01T04:54:35.261Z,24.88
2018-09-01T04:57:04.098Z,25.04
2018-09-01T04:59:33.082Z,25.31
2018-09-01T05:02:02.008Z,25.84
2018-09-01T05:04:31.176Z,26.35
2018-09-01T05:06:59.950Z,26.82
2018-09-01T05:09:29.383Z,26.94
2018-09-01T05:11:58.559Z,27.62
2018-09-01T05:14:27.452Z,27.89
2018-09-01T05:16:56.630Z,28.09
2018-09-01T05:19:25.347Z,28.54
2018-09-01T05:21:54.274Z,29.20
2018-09-01T05:24:23.476Z,29.67
2018-09-01T05:26:52.523Z,29.48
2018-09-01T05:29:21.423Z,29.22
2018-09-01T05:31:50.519Z,29.45
2018-09-01T05:34:19.426Z,29.97
2018-09-01T05:36:48.499Z,30.27
2018-09-01T05:39:17.342Z,30.31
2018-09-01T05:41:46.179Z,31.22
2018-09-01T05:44:15.074Z,31.51
2018-09-01T05:46:44.041Z,31.33
2018-09-01T05:49:13.070Z,30.54
2018-09-01T05:51:41.965Z,29.03
2018-09-01T05:54:11.074Z,27.70
2018-09-01T05:56:40.259Z,26.84
2018-09-01T05:59:09.056Z,26.57
2018-09-01T06:01:38.475Z,25.96
2018-09-01T06:04:07.318Z,25.45
2018-09-01T06:06:36.310Z,24.97
2018-09-01T06:09:06.839Z,25.11
2018-09-01T06:11:35.751Z,25.04
2018-09-01T06:14:04.728Z,24.96
2018-09-01T06:16:33.990Z,25.04
2018-09-01T06:19:03.166Z,24.91
2018-09-01T06:21:32.266Z,24.96
2018-09-01T06:24:01.642Z,24.94
2018-09-01T06:26:30.731Z,24.84
2018-09-01T06:29:05.276Z,24.51
2018-09-01T06:31:34.718Z,24.49
2018-09-01T06:34:03.855Z,24.62
2018-09-01T06:36:33.506Z,24.54
2018-09-01T06:39:02.675Z,24.39
2018-09-01T06:41:31.576Z,24.44
2018-09-01T06:44:01.183Z,24.45
2018-09-01T06:46:30.306Z,24.63
2018-09-01T06:48:59.183Z,24.60
2018-09-01T06:51:28.370Z,24.65
2018-09-01T06:53:57.132Z,24.39
2018-09-01T06:56:26.167Z,24.60
2018-09-01T06:58:55.734Z,25.91
2018-09-01T07:01:25.026Z,26.74
2018-09-01T07:03:54.122Z,27.75
2018-09-01T07:06:23.545Z,28.96
2018-09-01T07:08:52.648Z,28.61
2018-09-01T07:11:21.824Z,29.72
2018-09-01T07:13:50.722Z,30.88
2018-09-01T07:16:19.366Z,31.51
2018-09-01T07:18:48.712Z,31.72
2018-09-01T07:21:17.943Z,31.88
2018-09-01T07:23:47.106Z,32.24
2018-09-01T07:28:45.617Z,31.67
2018-09-01T07:31:14.893Z,30.84
2018-09-01T07:33:43.685Z,30.57
2018-09-01T07:36:17.031Z,31.06
2018-09-01T07:38:46.091Z,31.95
2018-09-01T07:41:15.570Z,30.37
2018-09-01T07:43:44.752Z,30.32
2018-09-01T07:46:13.890Z,30.54
2018-09-01T07:48:42.886Z,30.41
2018-09-01T07:51:12.414Z,30.43
2018-09-01T07:53:42.083Z,30.15
2018-09-01T07:56:11.773Z,31.57
2018-09-01T07:58:40.846Z,32.63
2018-09-01T08:01:10.090Z,32.99
2018-09-01T08:03:38.814Z,32.40
2018-09-01T08:06:08.167Z,32.57
2018-09-01T08:08:37.183Z,33.20
2018-09-01T08:11:06.342Z,33.63
2018-09-01T08:13:35.511Z,33.71
2018-09-01T08:16:04.623Z,33.85
2018-09-01T08:18:33.874Z,33.37
2018-09-01T08:21:03.308Z,33.20
2018-09-01T08:23:32.980Z,33.32
2018-09-01T08:26:02.137Z,32.78
2018-09-01T08:28:31.429Z,32.05
2018-09-01T08:31:00.709Z,32.59
2018-09-01T08:33:29.818Z,32.92
2018-09-01T08:35:59.407Z,33.19
2018-09-01T08:38:28.171Z,33.07
2018-09-01T08:40:57.400Z,33.00
2018-09-01T08:43:26.431Z,31.13
2018-09-01T08:45:55.396Z,30.84
2018-09-01T08:48:24.346Z,30.03
2018-09-01T08:50:53.420Z,30.54
2018-09-01T08:53:22.463Z,30.79
2018-09-01T08:55:51.436Z,29.65
2018-09-01T08:58:20.482Z,30.32
2018-09-01T09:00:49.351Z,30.27
2018-09-01T09:03:18.234Z,30.12
2018-09-01T09:05:47.272Z,30.25
2018-09-01T09:08:16.367Z,30.00
2018-09-01T09:10:45.333Z,29.68
2018-09-01T09:13:14.802Z,30.53
2018-09-01T09:15:43.836Z,30.80
2018-09-01T09:18:13.023Z,29.86
2018-09-01T09:20:42.230Z,28.99
2018-09-01T09:23:11.459Z,29.28
2018-09-01T09:25:40.627Z,29.77
2018-09-01T09:28:09.615Z,29.75
2018-09-01T09:30:38.611Z,29.94
2018-09-01T09:33:07.803Z,29.85
2018-09-01T09:35:36.738Z,29.93
2018-09-01T09:38:05.792Z,29.76
2018-09-01T09:40:35.123Z,29.61
2018-09-01T09:43:04.383Z,30.30
2018-09-01T09:45:33.596Z,30.11
2018-09-01T09:48:02.887Z,29.73
2018-09-01T09:50:31.995Z,30.16
2018-09-01T09:53:01.057Z,30.60
2018-09-01T09:55:30.126Z,30.94
2018-09-01T09:57:59.067Z,30.80
2018-09-01T10:01:32.831Z,30.59
2018-09-01T10:04:02.390Z,30.12
2018-09-01T10:06:31.411Z,30.36
2018-09-01T10:09:00.942Z,30.40
2018-09-01T10:11:29.823Z,30.66
2018-09-01T10:13:59.012Z,29.95
2018-09-01T10:16:28.411Z,29.92
2018-09-01T10:18:57.918Z,29.63
2018-09-01T10:21:26.922Z,29.76
2018-09-01T10:23:55.939Z,29.72
2018-09-01T10:26:25.230Z,30.20
2018-09-01T10:28:54.417Z,30.61
2018-09-01T10:31:24.387Z,30.73
2018-09-01T10:33:53.432Z,29.61
2018-09-01T10:36:22.737Z,29.77
2018-09-01T10:38:51.971Z,29.38
2018-09-01T10:41:21.350Z,29.81
2018-09-01T10:43:50.360Z,29.69
2018-09-01T10:46:19.639Z,29.50
2018-09-01T10:48:48.674Z,29.59
2018-09-01T10:51:17.746Z,29.38
2018-09-01T10:53:46.783Z,29.42
2018-09-01T10:56:15.561Z,29.23
2018-09-01T10:58:44.296Z,29.37
2018-09-01T11:01:13.392Z,29.24
2018-09-01T11:03:42.281Z,29.54
2018-09-01T11:06:11.367Z,29.44
2018-09-01T11:08:40.400Z,29.56
2018-09-01T11:11:09.369Z,29.82
2018-09-01T11:13:38.474Z,29.96
2018-09-01T11:16:07.510Z,30.08
2018-09-01T11:18:36.773Z,29.83
2018-09-01T11:21:05.643Z,29.26
2018-09-01T11:23:34.779Z,29.50
2018-09-01T11:26:03.872Z,29.80
2018-09-01T11:28:33.057Z,29.92
2018-09-01T11:31:02.603Z,29.99
2018-09-01T11:33:31.593Z,29.78
2018-09-01T11:36:00.531Z,29.90
2018-09-01T11:38:30.022Z,30.03
2018-09-01T11:40:59.226Z,29.92
2018-09-01T11:43:28.223Z,30.11
2018-09-01T11:45:57.558Z,30.02
2018-09-01T11:48:26.673Z,30.06
2018-09-01T11:50:55.848Z,29.93
2018-09-01T11:53:25.258Z,29.99
2018-09-01T11:55:54.331Z,30.34
2018-09-01T11:58:23.420Z,30.54
2018-09-01T12:00:52.430Z,29.91
2018-09-01T12:03:21.521Z,29.81
2018-09-01T12:05:50.799Z,30.07
2018-09-01T12:08:20.154Z,30.30
2018-09-01T12:10:49.226Z,29.92
2018-09-01T12:13:18.114Z,29.93
2018-09-01T12:15:47.682Z,30.24
2018-09-01T12:18:16.591Z,29.97
2018-09-01T12:20:46.265Z,29.81
2018-09-01T12:23:15.136Z,29.80
2018-09-01T12:25:44.198Z,29.62
2018-09-01T12:28:13.242Z,29.56
2018-09-01T12:30:42.597Z,29.45
2018-09-01T12:33:11.678Z,29.72
2018-09-01T12:35:40.750Z,29.69
2018-09-01T12:38:09.877Z,29.77
2018-09-01T12:40:38.894Z,29.76
2018-09-01T12:43:07.979Z,29.60
2018-09-01T12:45:37.519Z,29.58
2018-09-01T12:48:06.382Z,29.49
2018-09-01T12:50:35.283Z,29.77
2018-09-01T12:53:04.859Z,29.83
2018-09-01T12:55:33.969Z,29.94
2018-09-01T12:58:03.110Z,30.04
2018-09-01T13:00:32.098Z,30.30
2018-09-01T13:03:01.384Z,30.34
2018-09-01T13:05:30.372Z,30.23
2018-09-01T13:07:59.758Z,30.55
2018-09-01T13:10:28.767Z,30.13
2018-09-01T13:12:57.679Z,29.87
2018-09-01T13:15:27.042Z,29.95
2018-09-01T13:17:56.085Z,29.73
2018-09-01T13:20:25.137Z,30.07
2018-09-01T13:22:54.091Z,30.21
2018-09-01T13:25:22.981Z,30.10
2018-09-01T13:27:52.060Z,30.14
2018-09-01T13:30:21.371Z,30.29
2018-09-01T13:32:50.655Z,30.48
2018-09-01T13:35:19.829Z,30.65
2018-09-01T13:37:48.897Z,30.63
2018-09-01T13:40:18.159Z,30.83
2018-09-01T13:42:47.232Z,30.81
2018-09-01T13:45:16.579Z,30.67
2018-09-01T13:47:45.851Z,30.48
2018-09-01T13:50:14.803Z,30.39
2018-09-01T13:52:44.291Z,30.46
2018-09-01T13:55:13.342Z,30.10
2018-09-01T13:57:42.331Z,30.09
2018-09-01T14:00:11.855Z,30.28
2018-09-01T14:02:40.770Z,30.39
2018-09-01T14:05:09.932Z,30.48
2018-09-01T14:07:39.271Z,30.48
2018-09-01T14:10:08.519Z,30.23
2018-09-01T14:12:37.622Z,30.21
2018-09-01T14:15:06.748Z,30.18
2018-09-01T14:17:35.909Z,30.18
2018-09-01T14:20:04.998Z,30.10
2018-09-01T14:22:34.575Z,29.77
2018-09-01T14:25:03.967Z,30.12
2018-09-01T14:27:32.785Z,30.31
2018-09-01T14:30:02.074Z,30.33
2018-09-01T14:32:31.340Z,30.35
2018-09-01T14:35:00.468Z,30.09
2018-09-01T14:37:29.770Z,29.89
2018-09-01T14:39:58.813Z,29.95
2018-09-01T14:42:28.323Z,29.71
2018-09-01T14:44:57.973Z,29.78
2018-09-01T14:47:27.122Z,29.97
2018-09-01T14:49:55.993Z,30.10
2018-09-01T14:52:25.803Z,30.30
2018-09-01T14:54:54.728Z,29.99
2018-09-01T14:57:23.637Z,29.98
2018-09-01T14:59:53.194Z,29.91
2018-09-01T15:02:22.468Z,29.58
2018-09-01T15:04:51.536Z,29.50
2018-09-01T15:07:21.225Z,29.43
2018-09-01T15:09:50.261Z,29.16
2018-09-01T15:12:19.389Z,29.06
2018-09-01T15:14:48.747Z,28.85
2018-09-01T15:17:18.055Z,28.98
2018-09-01T15:19:47.235Z,28.84
2018-09-01T15:22:16.766Z,28.78
2018-09-01T15:24:45.628Z,28.72
2018-09-01T15:27:14.520Z,28.65
2018-09-01T15:29:43.731Z,28.49
2018-09-01T15:32:12.932Z,28.38
2018-09-01T15:34:42.033Z,28.39
2018-09-01T15:37:11.340Z,28.35
2018-09-01T15:39:40.326Z,28.23
2018-09-01T15:42:09.413Z,28.27
2018-09-01T15:44:39.171Z,28.12
2018-09-01T15:47:08.226Z,28.06
2018-09-01T15:49:37.114Z,27.93
2018-09-01T15:52:06.871Z,27.78
2018-09-01T15:54:35.910Z,27.69
2018-09-01T15:57:05.038Z,27.68
2018-09-01T15:59:34.123Z,27.58
2018-09-01T16:02:03.023Z,27.56
2018-09-01T16:04:32.118Z,27.54
2018-09-01T16:07:01.412Z,27.51
2018-09-01T16:09:30.490Z,27.35
2018-09-01T16:11:59.944Z,27.26
2018-09-01T16:14:29.386Z,27.26
2018-09-01T16:16:58.467Z,27.14
2018-09-01T16:19:27.518Z,27.10
2018-09-01T16:21:57.223Z,27.01
2018-09-01T16:24:26.064Z,26.95
2018-09-01T16:26:55.106Z,26.96
2018-09-01T16:29:24.303Z,26.91
2018-09-01T16:31:53.506Z,26.77
2018-09-01T16:34:22.711Z,26.77
2018-09-01T16:36:52.126Z,26.67
2018-09-01T16:39:21.291Z,26.66
2018-09-01T16:41:50.672Z,26.61
2018-09-01T16:44:20.039Z,26.60
2018-09-01T16:46:49.229Z,26.52
2018-09-01T16:49:18.109Z,26.38
2018-09-01T16:51:47.594Z,26.44
2018-09-01T16:54:16.785Z,26.38
2018-09-01T16:56:45.730Z,26.39
2018-09-01T16:59:15.237Z,26.27
2018-09-01T17:01:44.320Z,26.20
2018-09-01T17:04:13.487Z,26.18
2018-09-01T17:06:43.413Z,26.16
2018-09-01T17:09:12.421Z,26.04
2018-09-01T17:11:41.111Z,25.95
2018-09-01T17:14:10.688Z,25.96
2018-09-01T17:16:39.806Z,25.87
2018-09-01T17:19:08.911Z,25.85
2018-09-01T17:21:38.335Z,25.77
2018-09-01T17:24:07.390Z,25.70
2018-09-01T17:26:36.190Z,25.72
2018-09-01T17:29:05.551Z,25.68
2018-09-01T17:31:34.761Z,25.64
2018-09-01T17:34:03.703Z,25.68
2018-09-01T17:36:32.707Z,25.66
2018-09-01T17:39:01.398Z,25.72
2018-09-01T17:41:30.517Z,25.61
2018-09-01T17:44:00.194Z,25.62
2018-09-01T17:46:29.179Z,25.56
2018-09-01T17:48:57.960Z,25.52
2018-09-01T17:51:27.323Z,25.50
2018-09-01T17:53:56.465Z,25.46
2018-09-01T17:56:25.717Z,25.36
2018-09-01T17:58:55.314Z,25.36
2018-09-01T18:01:25.823Z,25.32
2018-09-01T18:03:55.311Z,25.33
2018-09-01T18:06:25.548Z,25.30
2018-09-01T18:08:54.639Z,25.24
2018-09-01T18:11:23.436Z,25.23
2018-09-01T18:13:52.863Z,25.16
2018-09-01T18:16:22.031Z,25.15
2018-09-01T18:18:51.118Z,25.11
2018-09-01T18:21:20.237Z,25.06
2018-09-01T18:23:49.080Z,25.03
2018-09-01T18:26:18.291Z,24.92
2018-09-01T18:28:47.226Z,24.88
2018-09-01T18:31:16.411Z,24.81
2018-09-01T18:33:45.455Z,24.77
2018-09-01T18:36:14.780Z,24.66
2018-09-01T18:38:43.555Z,24.62
2018-09-01T18:41:12.496Z,24.60
2018-09-01T18:43:41.709Z,24.51
2018-09-01T18:46:10.362Z,24.45
2018-09-01T18:48:39.151Z,24.38
2018-09-01T18:51:08.643Z,24.30
2018-09-01T18:53:37.610Z,24.23
2018-09-01T18:56:06.672Z,24.18
2018-09-01T18:58:35.636Z,24.15
2018-09-01T19:01:04.639Z,24.07
2018-09-01T19:03:33.699Z,24.01
2018-09-01T19:06:02.787Z,23.94
2018-09-01T19:08:32.543Z,24.01
2018-09-01T19:11:01.397Z,24.03
2018-09-01T19:13:30.512Z,24.06
2018-09-01T19:15:59.712Z,24.04
2018-09-01T19:18:28.610Z,24.08
2018-09-01T19:20:58.147Z,24.06
2018-09-01T19:23:27.243Z,24.07
2018-09-01T19:25:56.638Z,24.14
2018-09-01T19:28:25.652Z,24.12
2018-09-01T19:30:54.735Z,24.12
2018-09-01T19:33:23.682Z,24.05
2018-09-01T19:35:52.652Z,24.10
2018-09-01T19:38:21.618Z,24.09
2018-09-01T19:40:50.443Z,24.01
2018-09-01T19:43:19.424Z,23.96
2018-09-01T19:45:48.284Z,23.94
2018-09-01T19:48:17.755Z,23.91
2018-09-01T19:50:46.851Z,23.84
2018-09-01T19:53:16.049Z,23.77
2018-09-01T19:55:45.285Z,23.72
2018-09-01T19:58:15.898Z,23.64
2018-09-01T20:00:44.822Z,23.58
2018-09-01T20:03:13.787Z,23.66
2018-09-01T20:05:43.316Z,23.68
2018-09-01T20:08:12.199Z,23.71
2018-09-01T20:10:41.197Z,23.71
2018-09-01T20:13:10.532Z,23.69
2018-09-01T20:15:39.675Z,23.69
2018-09-01T20:18:08.574Z,23.63
2018-09-01T20:20:37.943Z,23.60
2018-09-01T20:23:07.085Z,23.55
2018-09-01T20:25:35.881Z,23.49
2018-09-01T20:28:05.032Z,23.54
2018-09-01T20:30:34.047Z,23.52
2018-09-01T20:33:03.050Z,23.46
2018-09-01T20:35:37.739Z,23.35
2018-09-01T20:38:07.039Z,23.28
2018-09-01T20:40:35.995Z,23.19
2018-09-01T20:43:05.133Z,23.15
2018-09-01T20:45:34.159Z,23.21
2018-09-01T20:48:03.086Z,23.22
2018-09-01T20:50:32.215Z,23.23
2018-09-01T20:53:01.154Z,23.19
2018-09-01T20:55:30.484Z,23.13
2018-09-01T20:57:59.876Z,23.10
2018-09-01T21:00:28.863Z,23.13
2018-09-01T21:02:57.738Z,23.17
2018-09-01T21:05:27.091Z,23.14
2018-09-01T21:07:56.163Z,23.12
2018-09-01T21:10:25.025Z,23.02
2018-09-01T21:12:54.064Z,22.95
2018-09-01T21:15:22.836Z,22.90
2018-09-01T21:17:51.729Z,22.87
2018-09-01T21:20:20.777Z,22.86
2018-09-01T21:22:50.193Z,22.79
2018-09-01T21:25:20.138Z,22.72
2018-09-01T21:27:49.352Z,22.62
2018-09-01T21:30:18.472Z,22.48
2018-09-01T21:32:47.339Z,22.37
2018-09-01T21:35:16.766Z,22.26
2018-09-01T21:37:45.727Z,22.15
2018-09-01T21:40:15.170Z,22.07
2018-09-01T21:42:44.695Z,22.02
2018-09-01T21:45:14.256Z,21.84
2018-09-01T21:47:43.761Z,21.67
2018-09-01T21:50:12.980Z,21.53
2018-09-01T21:52:41.824Z,21.48
2018-09-01T21:55:10.531Z,21.40
2018-09-01T21:57:39.643Z,21.33
2018-09-01T22:00:09.758Z,21.26
2018-09-01T22:02:38.748Z,21.19
2018-09-01T22:05:13.477Z,21.12
2018-09-01T22:07:42.389Z,21.08
2018-09-01T22:10:11.783Z,21.05
2018-09-01T22:12:41.211Z,20.99
2018-09-01T22:15:10.333Z,20.93
2018-09-01T22:17:39.470Z,20.85
2018-09-01T22:20:08.714Z,20.82
2018-09-01T22:22:37.976Z,20.82
2018-09-01T22:25:07.110Z,20.81
2018-09-01T22:27:36.546Z,20.72
2018-09-01T22:30:05.799Z,20.58
2018-09-01T22:32:34.985Z,20.40
2018-09-01T22:35:04.927Z,20.29
2018-09-01T22:37:33.894Z,20.21
2018-09-01T22:40:03.067Z,20.15
2018-09-01T22:42:32.837Z,20.11
2018-09-01T22:45:01.903Z,20.07
2018-09-01T22:47:32.277Z,20.04
2018-09-01T22:50:01.635Z,20.01
2018-09-01T22:52:30.713Z,19.99
2018-09-01T22:54:59.787Z,19.94
2018-09-01T22:57:28.832Z,19.97
2018-09-01T22:59:58.113Z,19.89
2018-09-01T23:02:27.291Z,19.84
2018-09-01T23:04:56.482Z,19.80
2018-09-01T23:07:25.498Z,19.76
2018-09-01T23:09:54.397Z,19.74
2018-09-01T23:12:23.819Z,19.63
2018-09-01T23:14:52.474Z,19.60
2018-09-01T23:17:21.386Z,19.54
2018-09-01T23:19:50.741Z,19.58
2018-09-01T23:22:19.679Z,19.54
2018-09-01T23:24:48.354Z,19.49
2018-09-01T23:27:17.568Z,19.47
2018-09-01T23:29:46.439Z,19.46
2018-09-01T23:32:15.220Z,19.47
2018-09-01T23:34:44.484Z,19.46
2018-09-01T23:37:13.574Z,19.41
2018-09-01T23:39:42.555Z,19.34
2018-09-01T23:42:12.299Z,19.35
2018-09-01T23:44:41.356Z,19.28
2018-09-01T23:47:10.363Z,19.28
2018-09-01T23:49:39.319Z,19.15
2018-09-01T23:53:37.220Z,19.18
2018-09-01T23:56:06.845Z,19.06
2018-09-01T23:58:36.110Z,18.99
